Time;durP1;ratioP1;P1;durP2;ratioP2;P2;SDS_P1;SDS_P2;PMS_P1;PMS_P2;Temp;Humidity;BMP_temperature;BMP_pressure;BME280_temperature;BME280_humidity;BME280_pressure;Samples;Min_cycle;Max_cycle;Signal;HPM_P1;HPM_P2
2023/11/15 00:01:18;;;;;;;1.05;0.60;;;9.00;99.90;;;;;;5029009;28;20556;-89
2023/11/15 00:03:45;;;;;;;1.90;0.60;;;9.00;99.90;;;;;;5021210;28;20222;-89
2023/11/15 00:06:21;;;;;;;0.50;0.50;;;8.90;99.90;;;;;;5014545;28;20223;-89
2023/11/15 00:09:09;;;;;;;3.50;0.80;;;9.00;99.90;;;;;;5029587;28;20223;-89
2023/11/15 00:11:36;;;;;;;0.88;0.60;;;9.00;99.90;;;;;;5014782;28;20214;-89
2023/11/15 00:14:04;;;;;;;0.90;0.60;;;9.00;99.90;;;;;;5051854;28;20194;-90
2023/11/15 00:16:31;;;;;;;0.50;0.50;;;9.00;99.90;;;;;;5033849;28;20234;-91
2023/11/15 00:18:58;;;;;;;0.77;0.65;;;9.10;99.90;;;;;;5017879;28;20281;-89
2023/11/15 00:21:34;;;;;;;0.98;0.57;;;9.10;99.90;;;;;;5009504;28;20207;-89
2023/11/15 00:24:21;;;;;;;0.68;0.68;;;9.30;99.90;;;;;;5008627;28;20655;-90
2023/11/15 00:26:48;;;;;;;1.00;0.90;;;9.30;99.90;;;;;;5013003;28;20206;-89
2023/11/15 00:29:15;;;;;;;0.50;0.50;;;9.40;99.90;;;;;;5024784;28;20222;-89
2023/11/15 00:31:42;;;;;;;0.98;0.57;;;9.40;99.90;;;;;;5014325;28;20209;-90
2023/11/15 00:34:09;;;;;;;2.08;0.70;;;9.40;99.90;;;;;;5029114;28;20198;-89
2023/11/15 00:36:42;;;;;;;0.60;0.60;;;9.40;99.90;;;;;;5033496;28;20661;-90
2023/11/15 00:39:09;;;;;;;2.67;0.70;;;9.40;99.90;;;;;;5031334;28;20203;-89
2023/11/15 00:41:36;;;;;;;0.73;0.73;;;9.40;99.90;;;;;;5006620;28;20236;-90
2023/11/15 00:44:06;;;;;;;1.45;0.73;;;9.50;99.90;;;;;;5029461;28;20202;-90
2023/11/15 00:46:51;;;;;;;1.00;0.70;;;9.60;99.90;;;;;;5027581;28;20195;-90
2023/11/15 00:54:44;;;;;;;0.63;0.63;;;9.70;99.90;;;;;;5023174;28;20204;-90
2023/11/15 00:57:11;;;;;;;1.15;0.80;;;9.70;99.90;;;;;;4991494;28;20207;-90
2023/11/15 00:59:43;;;;;;;0.70;0.70;;;9.70;99.90;;;;;;5014588;28;20206;-90
2023/11/15 01:02:11;;;;;;;1.35;0.68;;;9.70;99.90;;;;;;5021177;28;20191;-90
2023/11/15 01:04:38;;;;;;;1.10;0.80;;;9.70;99.90;;;;;;5010565;28;20203;-90
2023/11/15 01:07:15;;;;;;;1.00;0.70;;;9.80;99.90;;;;;;5023011;28;20192;-90
2023/11/15 01:09:41;;;;;;;1.10;0.60;;;9.70;99.90;;;;;;4996602;28;20679;-90
2023/11/15 01:12:08;;;;;;;0.70;0.70;;;9.80;99.90;;;;;;5009114;28;20208;-90
2023/11/15 01:14:38;;;;;;;1.50;0.93;;;9.80;99.90;;;;;;5024569;28;20325;-90
2023/11/15 01:17:05;;;;;;;1.17;1.08;;;9.90;99.90;;;;;;5019952;28;20195;-90
2023/11/15 01:22:16;;;;;;;1.27;0.90;;;9.90;99.90;;;;;;5017708;28;20202;-90
2023/11/15 01:24:43;;;;;;;0.65;0.65;;;10.00;99.80;;;;;;5021969;28;20297;-90
2023/11/15 01:27:11;;;;;;;2.50;1.00;;;10.00;99.60;;;;;;5009521;28;20289;-90
2023/11/15 01:29:38;;;;;;;1.85;1.02;;;10.10;99.20;;;;;;5022292;28;20323;-90
2023/11/15 01:32:05;;;;;;;1.45;0.70;;;10.10;99.00;;;;;;4995904;28;20618;-90
2023/11/15 01:34:32;;;;;;;2.97;0.90;;;10.10;98.70;;;;;;5015631;28;20281;-90
2023/11/15 01:36:59;;;;;;;1.95;0.88;;;10.20;98.50;;;;;;5030961;28;20203;-90
2023/11/15 01:39:28;;;;;;;1.02;0.70;;;10.20;98.60;;;;;;5030442;28;20239;-90
2023/11/15 01:41:56;;;;;;;2.92;1.05;;;10.20;97.80;;;;;;5032883;28;20738;-90
2023/11/15 01:44:24;;;;;;;2.80;0.77;;;10.20;98.00;;;;;;5026600;28;20203;-90
2023/11/15 01:46:54;;;;;;;1.88;0.90;;;10.30;97.70;;;;;;5028912;28;20191;-90
2023/11/15 01:49:44;;;;;;;2.92;0.98;;;10.20;97.60;;;;;;5015622;28;20561;-90
2023/11/15 01:52:17;;;;;;;1.20;0.70;;;10.30;97.60;;;;;;5030255;28;20225;-90
2023/11/15 01:57:44;;;;;;;1.50;1.00;;;10.20;97.40;;;;;;5030017;28;20225;-90
2023/11/15 02:00:28;;;;;;;2.25;0.82;;;10.20;97.40;;;;;;5030298;28;20214;-90
2023/11/15 02:02:56;;;;;;;1.23;0.63;;;10.20;97.20;;;;;;5011849;28;20234;-90
2023/11/15 02:05:25;;;;;;;1.65;0.68;;;10.20;97.50;;;;;;5029907;28;20229;-90
2023/11/15 02:07:53;;;;;;;1.13;0.77;;;10.20;97.70;;;;;;5014431;28;20190;-91
2023/11/15 02:13:22;;;;;;;1.00;0.60;;;10.20;97.30;;;;;;5031679;28;20213;-90
2023/11/15 02:15:50;;;;;;;3.63;0.88;;;10.10;97.30;;;;;;5012429;28;20666;-90
2023/11/15 02:18:17;;;;;;;1.50;0.70;;;10.20;97.10;;;;;;5028187;28;20202;-90
2023/11/15 02:20:45;;;;;;;2.10;1.10;;;10.20;97.20;;;;;;5030097;28;20199;-90
2023/11/15 02:26:16;;;;;;;1.90;0.90;;;10.20;96.70;;;;;;5029422;28;20198;-90
2023/11/15 02:28:44;;;;;;;2.05;0.77;;;10.20;96.60;;;;;;5029071;28;20223;-90
2023/11/15 02:31:11;;;;;;;2.13;0.80;;;10.20;96.60;;;;;;5018711;28;20636;-90
2023/11/15 02:33:38;;;;;;;1.63;1.05;;;10.20;96.70;;;;;;4996979;28;20218;-90
2023/11/15 02:36:06;;;;;;;0.68;0.60;;;10.20;97.00;;;;;;5015925;28;20195;-90
2023/11/15 02:38:33;;;;;;;0.90;0.80;;;10.20;97.10;;;;;;5027164;28;20202;-90
2023/11/15 02:41:00;;;;;;;1.60;0.98;;;10.10;97.50;;;;;;5027926;28;20203;-90
2023/11/15 02:46:09;;;;;;;1.15;0.88;;;10.00;99.40;;;;;;5017006;28;20199;-91
2023/11/15 02:48:37;;;;;;;2.42;0.98;;;9.80;99.90;;;;;;5028353;28;20215;-90
2023/11/15 02:51:04;;;;;;;1.77;0.95;;;9.70;99.90;;;;;;5037327;28;20219;-90
2023/11/15 02:53:32;;;;;;;2.03;1.17;;;9.60;99.90;;;;;;5015317;28;20199;-91
2023/11/15 02:55:59;;;;;;;1.70;1.10;;;9.50;99.90;;;;;;5030872;28;20202;-90
2023/11/15 02:58:26;;;;;;;1.40;0.90;;;9.50;99.90;;;;;;5033940;28;20190;-90
2023/11/15 03:00:54;;;;;;;1.65;0.88;;;9.50;99.90;;;;;;5026703;28;20199;-91
2023/11/15 03:03:21;;;;;;;2.67;0.77;;;9.50;99.90;;;;;;5030078;28;20202;-90
2023/11/15 03:05:51;;;;;;;3.65;1.10;;;9.50;99.90;;;;;;5033460;28;20198;-90
2023/11/15 03:08:37;;;;;;;3.03;1.00;;;9.50;99.90;;;;;;5026319;28;20226;-90
2023/11/15 03:11:05;;;;;;;2.22;1.00;;;9.50;99.90;;;;;;5027037;28;20225;-90
2023/11/15 03:13:33;;;;;;;1.95;0.85;;;9.50;99.90;;;;;;5011747;28;20550;-90
2023/11/15 03:16:01;;;;;;;2.80;0.95;;;9.50;99.90;;;;;;5013083;28;20209;-90
2023/11/15 03:18:28;;;;;;;3.30;1.20;;;9.60;99.90;;;;;;4992512;28;20203;-90
2023/11/15 03:20:55;;;;;;;2.15;0.90;;;9.60;99.90;;;;;;5035581;28;20210;-90
2023/11/15 03:23:22;;;;;;;2.70;1.50;;;9.70;99.90;;;;;;5030813;28;20187;-91
2023/11/15 03:25:50;;;;;;;1.48;0.80;;;9.70;99.90;;;;;;5036574;28;20278;-90
2023/11/15 03:28:17;;;;;;;2.30;0.80;;;9.80;99.70;;;;;;5033297;28;20183;-90
2023/11/15 03:30:44;;;;;;;1.80;0.73;;;9.80;99.20;;;;;;5031711;28;20207;-90
2023/11/15 03:33:12;;;;;;;1.30;0.70;;;9.70;99.20;;;;;;5022525;28;20217;-90
2023/11/15 03:35:54;;;;;;;1.67;0.90;;;9.70;99.30;;;;;;5027448;28;20195;-90
2023/11/15 03:38:21;;;;;;;2.05;1.02;;;9.70;98.80;;;;;;4992856;28;20661;-91
2023/11/15 03:40:48;;;;;;;1.27;0.82;;;9.60;98.60;;;;;;5028048;28;20195;-90
2023/11/15 03:43:15;;;;;;;1.70;0.70;;;9.50;98.70;;;;;;5006635;28;21892;-90
2023/11/15 03:45:42;;;;;;;0.88;0.80;;;9.40;98.80;;;;;;5021456;28;20209;-90
2023/11/15 03:48:11;;;;;;;1.42;0.80;;;9.30;98.90;;;;;;5011357;28;20199;-90
2023/11/15 03:50:54;;;;;;;2.60;0.70;;;9.40;98.80;;;;;;5010627;28;20237;-90
2023/11/15 03:53:21;;;;;;;1.35;0.70;;;9.40;98.70;;;;;;5001263;28;20575;-90
2023/11/15 03:55:48;;;;;;;1.90;0.98;;;9.40;98.60;;;;;;5010610;28;20212;-90
2023/11/15 03:58:15;;;;;;;2.45;0.73;;;9.40;98.60;;;;;;5025032;28;20198;-90
2023/11/15 04:00:42;;;;;;;0.80;0.80;;;9.40;98.80;;;;;;5026551;28;20213;-90
2023/11/15 04:03:09;;;;;;;1.55;0.80;;;9.40;98.70;;;;;;5025918;28;20195;-90
2023/11/15 04:05:36;;;;;;;2.22;0.85;;;9.30;98.60;;;;;;5011407;28;20590;-90
2023/11/15 04:08:08;;;;;;;1.23;0.70;;;9.40;98.10;;;;;;5026229;28;20707;-90
2023/11/15 04:10:55;;;;;;;2.25;0.90;;;9.50;98.10;;;;;;5029071;28;20233;-90
2023/11/15 04:13:22;;;;;;;3.35;0.90;;;9.50;97.60;;;;;;5023469;28;20205;-90
2023/11/15 04:15:54;;;;;;;1.33;0.80;;;9.40;97.50;;;;;;5010689;28;20289;-90
2023/11/15 04:18:21;;;;;;;2.40;0.88;;;9.50;97.20;;;;;;5031446;28;20226;-90
2023/11/15 04:21:08;;;;;;;1.33;0.75;;;9.50;97.20;;;;;;5031039;28;20217;-90
2023/11/15 04:26:19;;;;;;;1.88;0.93;;;9.50;96.90;;;;;;5030961;28;20206;-90
2023/11/15 04:28:45;;;;;;;2.35;1.15;;;9.50;96.00;;;;;;5031802;28;20268;-90
2023/11/15 04:31:12;;;;;;;1.65;0.82;;;9.50;96.40;;;;;;5011637;28;20204;-90
2023/11/15 04:33:39;;;;;;;1.23;0.80;;;9.50;96.00;;;;;;5024541;28;20576;-90
2023/11/15 04:36:11;;;;;;;1.65;0.77;;;9.40;96.00;;;;;;5001814;28;20194;-90
2023/11/15 04:38:39;;;;;;;1.15;0.80;;;9.40;96.30;;;;;;5028957;28;20222;-89
2023/11/15 04:41:07;;;;;;;1.55;0.77;;;9.40;96.40;;;;;;5022652;28;20214;-90
2023/11/15 04:43:34;;;;;;;0.88;0.70;;;9.40;96.20;;;;;;5009203;28;20203;-90
2023/11/15 04:46:03;;;;;;;1.10;0.70;;;9.40;96.70;;;;;;4990200;28;20725;-90
2023/11/15 04:48:30;;;;;;;0.82;0.70;;;9.30;97.10;;;;;;5014821;28;20647;-90
2023/11/15 04:50:57;;;;;;;2.15;0.85;;;9.30;97.10;;;;;;5004391;28;20219;-90
2023/11/15 04:53:25;;;;;;;0.77;0.70;;;9.30;97.40;;;;;;5027296;28;20584;-90
2023/11/15 04:55:53;;;;;;;1.50;0.90;;;9.30;97.40;;;;;;4993981;28;20203;-90
2023/11/15 04:58:21;;;;;;;2.20;0.90;;;9.40;97.20;;;;;;5012479;28;20725;-90
2023/11/15 05:00:47;;;;;;;0.95;0.80;;;9.30;97.20;;;;;;5024120;28;20198;-90
2023/11/15 05:03:15;;;;;;;2.58;1.00;;;9.20;97.50;;;;;;5026137;28;20198;-90
2023/11/15 05:05:42;;;;;;;2.65;1.10;;;9.20;98.10;;;;;;5013225;28;20668;-90
2023/11/15 05:08:09;;;;;;;1.70;0.93;;;9.10;98.30;;;;;;5016894;28;20229;-90
2023/11/15 05:10:36;;;;;;;2.40;1.00;;;9.00;98.60;;;;;;5028236;28;20649;-90
2023/11/15 05:13:31;;;;;;;1.25;0.73;;;9.00;98.90;;;;;;5031193;28;20210;-90
2023/11/15 05:16:03;;;;;;;3.40;0.85;;;9.00;98.80;;;;;;5005090;28;20210;-90
2023/11/15 05:18:30;;;;;;;2.05;1.00;;;9.00;99.10;;;;;;5021585;28;20671;-90
2023/11/15 05:21:17;;;;;;;3.10;0.70;;;8.90;99.40;;;;;;5016212;28;20210;-90
2023/11/15 05:23:44;;;;;;;1.67;1.27;;;8.90;99.30;;;;;;5025974;28;20199;-90
2023/11/15 05:26:12;;;;;;;0.88;0.70;;;8.80;99.80;;;;;;5027704;28;20206;-90
2023/11/15 05:31:41;;;;;;;4.47;1.13;;;8.70;99.90;;;;;;5022392;28;20206;-89
2023/11/15 05:34:08;;;;;;;1.80;1.10;;;8.70;99.90;;;;;;4994081;28;20199;-90
2023/11/15 05:36:34;;;;;;;3.00;1.00;;;8.70;99.90;;;;;;5006820;28;20203;-91
2023/11/15 05:39:14;;;;;;;3.20;1.13;;;8.70;99.90;;;;;;4992314;28;20217;-89
2023/11/15 05:42:01;;;;;;;4.28;1.00;;;8.70;99.90;;;;;;5013906;28;20217;-90
2023/11/15 05:44:32;;;;;;;2.38;1.10;;;8.70;99.70;;;;;;5031931;28;20199;-90
2023/11/15 05:46:58;;;;;;;3.70;1.23;;;8.60;99.70;;;;;;5020996;28;20734;-86
2023/11/15 05:49:25;;;;;;;1.23;1.13;;;8.60;99.80;;;;;;5025357;28;20219;-89
2023/11/15 05:51:52;;;;;;;2.10;1.10;;;8.70;99.70;;;;;;5012943;28;20269;-89
2023/11/15 05:54:19;;;;;;;1.83;1.30;;;8.70;99.30;;;;;;5023966;28;20198;-88
2023/11/15 05:56:46;;;;;;;2.13;1.17;;;8.80;99.00;;;;;;5026882;28;20215;-86
2023/11/15 05:59:13;;;;;;;2.95;1.05;;;8.80;98.80;;;;;;5007792;28;20191;-91
2023/11/15 06:01:42;;;;;;;1.80;1.10;;;8.80;98.80;;;;;;4999370;28;20211;-91
2023/11/15 06:04:10;;;;;;;2.63;1.13;;;8.80;98.50;;;;;;5013403;28;20252;-90
2023/11/15 06:06:37;;;;;;;1.98;1.17;;;8.90;98.40;;;;;;5012038;28;20203;-91
2023/11/15 06:09:04;;;;;;;1.63;1.00;;;8.80;98.30;;;;;;5010656;28;20210;-91
2023/11/15 06:11:32;;;;;;;1.35;1.00;;;8.80;98.50;;;;;;5015539;28;20210;-91
2023/11/15 06:13:59;;;;;;;1.67;1.00;;;8.80;98.50;;;;;;5011393;28;20195;-91
2023/11/15 06:16:28;;;;;;;1.50;1.00;;;8.70;98.70;;;;;;5015970;28;20229;-92
2023/11/15 06:21:42;;;;;;;2.67;1.17;;;8.80;98.50;;;;;;5024462;28;20228;-90
2023/11/15 06:24:09;;;;;;;2.25;1.00;;;8.70;98.50;;;;;;5029998;28;20613;-90
2023/11/15 06:26:39;;;;;;;2.00;1.15;;;8.70;98.60;;;;;;5026522;28;20205;-90
2023/11/15 06:29:07;;;;;;;2.25;1.30;;;8.70;98.80;;;;;;5029344;28;20198;-90
2023/11/15 06:31:36;;;;;;;1.40;0.90;;;8.60;99.00;;;;;;5032511;28;20703;-90
2023/11/15 06:34:05;;;;;;;4.40;1.20;;;8.60;99.20;;;;;;5037591;28;20179;-90
2023/11/15 06:36:36;;;;;;;2.25;1.10;;;8.60;99.00;;;;;;5054530;28;20194;-90
2023/11/15 06:39:05;;;;;;;2.95;0.98;;;8.70;99.00;;;;;;5050804;28;20207;-89
2023/11/15 06:41:34;;;;;;;3.33;1.00;;;8.70;99.10;;;;;;5034390;28;20261;-90
2023/11/15 06:44:01;;;;;;;3.70;1.08;;;8.80;98.60;;;;;;5015399;28;20236;-90
2023/11/15 06:46:28;;;;;;;6.78;1.20;;;8.90;98.50;;;;;;5027833;28;20199;-90
2023/11/15 06:48:55;;;;;;;1.77;1.00;;;8.90;98.60;;;;;;5020533;28;20214;-90
2023/11/15 06:51:24;;;;;;;1.60;1.00;;;9.00;98.50;;;;;;5008144;28;20284;-90
2023/11/15 06:53:53;;;;;;;5.32;1.30;;;9.00;98.60;;;;;;5006191;28;20198;-90
2023/11/15 06:56:23;;;;;;;2.20;1.20;;;9.10;98.50;;;;;;5006769;28;20227;-92
2023/11/15 06:58:49;;;;;;;3.92;1.30;;;9.20;97.80;;;;;;5007056;28;20201;-93
2023/11/15 07:01:16;;;;;;;2.17;1.08;;;9.30;97.70;;;;;;5015313;28;20194;-92
2023/11/15 07:06:29;;;;;;;1.90;1.10;;;9.20;97.80;;;;;;5025256;28;20666;-91
2023/11/15 07:09:18;;;;;;;1.83;0.93;;;9.30;97.90;;;;;;5031270;28;20205;-91
2023/11/15 07:11:46;;;;;;;2.17;1.05;;;9.30;98.10;;;;;;5005074;28;20210;-91
2023/11/15 07:14:20;;;;;;;3.13;1.25;;;9.40;98.00;;;;;;5025697;28;20218;-91
2023/11/15 07:16:55;;;;;;;1.45;0.82;;;9.50;97.50;;;;;;5030573;28;20214;-92
2023/11/15 07:19:24;;;;;;;2.45;1.13;;;9.60;97.40;;;;;;5034205;28;20202;-90
2023/11/15 07:24:39;;;;;;;1.48;1.00;;;9.60;97.80;;;;;;5022770;28;20647;-88
2023/11/15 07:27:07;;;;;;;3.15;1.27;;;9.60;97.70;;;;;;5028285;28;20199;-89
2023/11/15 07:29:35;;;;;;;1.45;1.10;;;9.60;97.40;;;;;;5013479;28;20233;-88
2023/11/15 07:32:03;;;;;;;3.47;1.15;;;9.60;97.60;;;;;;5029738;28;20297;-88
2023/11/15 07:34:33;;;;;;;4.03;1.15;;;9.60;97.60;;;;;;5022727;28;20198;-90
2023/11/15 07:37:02;;;;;;;3.05;0.90;;;9.60;97.50;;;;;;5007864;28;20202;-89
2023/11/15 07:39:29;;;;;;;1.95;1.00;;;9.60;97.40;;;;;;5029620;28;20329;-90
2023/11/15 07:41:56;;;;;;;2.00;1.10;;;9.60;97.70;;;;;;5032036;28;20205;-90
2023/11/15 07:44:25;;;;;;;4.15;1.10;;;9.70;97.10;;;;;;5029466;28;20202;-90
2023/11/15 07:46:54;;;;;;;1.50;1.27;;;9.70;96.80;;;;;;5010311;28;20231;-90
2023/11/15 07:49:23;;;;;;;3.63;1.17;;;9.70;97.10;;;;;;5022947;28;20203;-90
2023/11/15 07:51:51;;;;;;;5.90;1.13;;;9.70;97.10;;;;;;4998850;28;20214;-89
2023/11/15 07:54:19;;;;;;;2.75;0.93;;;9.70;96.80;;;;;;5033673;28;20198;-90
2023/11/15 07:56:48;;;;;;;3.70;1.20;;;9.80;96.80;;;;;;5025236;28;20738;-89
2023/11/15 07:59:15;;;;;;;2.08;0.90;;;9.90;96.90;;;;;;5010826;28;20203;-89
2023/11/15 08:01:42;;;;;;;2.88;1.23;;;9.90;97.00;;;;;;5009264;28;20562;-89
2023/11/15 08:04:09;;;;;;;1.30;0.82;;;9.90;96.80;;;;;;5010175;28;20198;-89
2023/11/15 08:06:37;;;;;;;2.00;1.13;;;9.90;96.60;;;;;;5006258;28;20207;-89
2023/11/15 08:09:04;;;;;;;1.85;0.93;;;9.90;96.10;;;;;;5025214;28;20196;-89
2023/11/15 08:11:35;;;;;;;4.05;1.15;;;9.90;96.50;;;;;;5016093;28;20229;-89
2023/11/15 08:14:06;;;;;;;3.58;0.95;;;10.00;95.70;;;;;;5012399;28;20665;-89
2023/11/15 08:16:33;;;;;;;2.58;1.15;;;10.10;95.70;;;;;;5029104;28;20673;-89
2023/11/15 08:19:01;;;;;;;1.77;1.20;;;10.10;95.30;;;;;;5027008;28;20233;-89
2023/11/15 08:21:29;;;;;;;3.70;0.73;;;10.10;95.40;;;;;;5012154;28;20208;-89
2023/11/15 08:23:56;;;;;;;2.65;1.42;;;10.20;95.20;;;;;;5024849;28;20198;-89
2023/11/15 08:26:22;;;;;;;3.95;1.20;;;10.30;94.80;;;;;;5011538;28;20199;-89
2023/11/15 08:28:51;;;;;;;1.88;1.20;;;10.50;93.90;;;;;;5029970;28;20203;-89
2023/11/15 08:31:21;;;;;;;3.28;1.33;;;10.60;93.10;;;;;;5013213;28;20584;-89
2023/11/15 08:33:48;;;;;;;7.80;5.13;;;10.60;93.00;;;;;;5005095;28;20205;-89
2023/11/15 08:36:16;;;;;;;5.03;2.72;;;10.60;93.60;;;;;;5022089;28;20202;-89
2023/11/15 08:38:44;;;;;;;4.20;2.30;;;10.60;93.70;;;;;;5031791;28;20547;-89
2023/11/15 08:41:15;;;;;;;7.47;5.15;;;10.70;93.50;;;;;;5015429;28;20206;-89
2023/11/15 08:43:42;;;;;;;7.32;5.55;;;10.80;93.40;;;;;;5018046;28;20347;-89
2023/11/15 08:46:10;;;;;;;3.88;2.03;;;10.90;93.70;;;;;;5037792;28;20198;-89
2023/11/15 08:48:37;;;;;;;2.80;2.20;;;10.80;93.00;;;;;;5031450;28;20206;-89
2023/11/15 08:51:05;;;;;;;3.60;2.47;;;10.70;92.70;;;;;;5008880;28;20230;-88
2023/11/15 08:53:32;;;;;;;4.20;2.08;;;10.70;92.40;;;;;;5000025;28;20659;-89
2023/11/15 08:56:02;;;;;;;3.53;2.03;;;10.70;92.50;;;;;;5028595;28;20191;-89
2023/11/15 08:58:30;;;;;;;2.88;1.58;;;10.70;93.50;;;;;;5015896;28;21445;-89
2023/11/15 09:01:01;;;;;;;4.60;2.13;;;10.80;92.50;;;;;;5015730;28;20597;-90
2023/11/15 09:03:29;;;;;;;2.67;1.92;;;11.00;93.10;;;;;;5009967;28;20198;-89
2023/11/15 09:05:56;;;;;;;6.70;2.58;;;11.00;91.70;;;;;;5031407;28;20199;-89
2023/11/15 09:08:23;;;;;;;3.85;1.20;;;11.10;93.10;;;;;;5024869;28;20290;-90
2023/11/15 09:10:50;;;;;;;3.00;1.27;;;11.10;91.70;;;;;;5012285;28;20699;-90
2023/11/15 09:13:18;;;;;;;3.92;1.20;;;10.90;91.90;;;;;;5030091;28;20568;-90
2023/11/15 09:15:46;;;;;;;3.05;1.27;;;10.80;92.20;;;;;;5011797;28;20293;-90
2023/11/15 09:18:14;;;;;;;2.35;1.00;;;10.70;92.30;;;;;;5028467;28;20629;-90
2023/11/15 09:20:43;;;;;;;2.70;1.20;;;10.60;92.60;;;;;;5029900;28;20285;-90
2023/11/15 09:23:13;;;;;;;3.53;1.20;;;10.50;93.10;;;;;;5041745;28;20201;-90
2023/11/15 09:25:40;;;;;;;2.78;1.67;;;10.50;92.90;;;;;;5017101;28;20206;-91
2023/11/15 09:28:07;;;;;;;1.83;1.30;;;10.40;93.10;;;;;;5037565;28;20198;-89
2023/11/15 09:30:35;;;;;;;4.22;1.50;;;10.40;93.10;;;;;;5005695;28;20223;-90
2023/11/15 09:33:05;;;;;;;2.90;1.27;;;10.40;92.80;;;;;;5014884;28;20215;-90
2023/11/15 09:35:36;;;;;;;2.28;1.10;;;10.40;92.30;;;;;;5030304;28;20199;-90
2023/11/15 09:40:48;;;;;;;3.03;1.10;;;10.30;93.20;;;;;;5031882;28;20230;-89
2023/11/15 09:43:16;;;;;;;1.85;1.13;;;10.40;93.70;;;;;;5025430;28;20265;-89
2023/11/15 09:45:44;;;;;;;2.05;1.00;;;10.60;93.20;;;;;;4998481;28;20195;-89
2023/11/15 09:48:12;;;;;;;3.22;1.10;;;10.70;92.20;;;;;;5014473;28;20194;-89
2023/11/15 09:50:41;;;;;;;3.00;1.50;;;10.70;92.70;;;;;;5022240;28;20210;-89
2023/11/15 09:53:11;;;;;;;4.43;1.30;;;10.60;92.90;;;;;;5025816;28;20285;-89
2023/11/15 09:55:38;;;;;;;3.17;1.25;;;10.60;93.90;;;;;;5031848;28;20190;-89
2023/11/15 09:58:06;;;;;;;2.30;1.27;;;10.40;94.30;;;;;;5028025;28;20211;-89
2023/11/15 10:00:33;;;;;;;4.68;1.25;;;10.40;95.10;;;;;;5025386;28;20886;-89
2023/11/15 10:03:00;;;;;;;3.05;1.20;;;10.30;95.40;;;;;;5026925;28;20194;-89
2023/11/15 10:05:28;;;;;;;2.65;1.15;;;10.30;95.80;;;;;;5013382;28;20214;-89
2023/11/15 10:08:08;;;;;;;2.67;1.17;;;10.10;95.90;;;;;;5032460;28;20195;-89
2023/11/15 10:10:36;;;;;;;1.83;1.15;;;10.00;97.60;;;;;;5007082;28;20225;-89
2023/11/15 10:13:12;;;;;;;4.75;1.35;;;10.00;98.00;;;;;;5018006;28;20226;-89
2023/11/15 10:15:43;;;;;;;2.92;1.63;;;9.80;98.70;;;;;;5013545;28;20296;-89
2023/11/15 10:18:12;;;;;;;3.28;1.20;;;9.80;98.70;;;;;;5029766;28;20214;-89
2023/11/15 10:20:41;;;;;;;1.83;1.48;;;9.90;98.70;;;;;;5024174;28;20199;-89
2023/11/15 10:23:10;;;;;;;3.10;1.00;;;10.10;98.30;;;;;;5027621;28;20204;-89
2023/11/15 10:25:50;;;;;;;3.88;1.20;;;10.20;97.20;;;;;;5009628;28;20304;-89
2023/11/15 10:28:21;;;;;;;2.28;1.10;;;10.40;97.20;;;;;;5031719;28;20206;-89
2023/11/15 10:31:01;;;;;;;4.72;1.30;;;10.70;96.80;;;;;;5014387;28;20222;-89
2023/11/15 10:33:31;;;;;;;2.22;0.95;;;11.00;96.70;;;;;;5018024;28;20553;-89
2023/11/15 10:36:16;;;;;;;3.90;1.33;;;11.10;95.20;;;;;;5012444;28;20210;-89
2023/11/15 10:38:50;;;;;;;3.47;1.23;;;11.00;94.90;;;;;;5027734;28;20206;-89
2023/11/15 10:44:24;;;;;;;2.13;1.10;;;10.70;95.30;;;;;;5028966;28;20285;-89
2023/11/15 10:49:38;;;;;;;2.05;1.02;;;10.50;95.20;;;;;;5030611;28;20202;-89
2023/11/15 10:52:07;;;;;;;3.13;0.90;;;10.50;95.00;;;;;;5030790;28;20706;-89
2023/11/15 10:54:34;;;;;;;2.72;1.23;;;10.50;94.90;;;;;;5013724;28;20202;-89
2023/11/15 10:57:04;;;;;;;3.60;1.30;;;10.40;94.60;;;;;;4997425;28;20233;-90
2023/11/15 10:59:35;;;;;;;3.08;1.10;;;10.40;94.70;;;;;;5028432;28;20266;-90
2023/11/15 11:02:05;;;;;;;3.88;1.33;;;10.30;94.50;;;;;;5025001;28;20198;-91
2023/11/15 11:04:33;;;;;;;3.08;1.70;;;10.30;94.90;;;;;;5011218;28;20233;-90
2023/11/15 11:07:07;;;;;;;1.77;0.90;;;10.20;94.80;;;;;;5024255;28;20248;-92
2023/11/15 11:09:40;;;;;;;3.00;1.20;;;10.20;95.00;;;;;;5027302;28;20200;-90
2023/11/15 11:12:12;;;;;;;3.38;1.13;;;10.30;95.10;;;;;;5025124;28;20680;-91
2023/11/15 11:14:41;;;;;;;3.28;1.20;;;10.40;95.80;;;;;;5024692;28;20268;-91
2023/11/15 11:17:33;;;;;;;2.63;1.20;;;10.60;94.70;;;;;;5009790;28;20203;-90
2023/11/15 11:20:01;;;;;;;1.83;1.08;;;10.60;94.80;;;;;;5024536;28;20209;-90
2023/11/15 11:22:29;;;;;;;2.75;1.05;;;10.60;94.30;;;;;;5022624;28;20207;-90
2023/11/15 11:25:21;;;;;;;3.45;1.27;;;10.70;93.90;;;;;;5032215;28;20254;-90
2023/11/15 11:27:58;;;;;;;2.10;1.20;;;10.60;93.50;;;;;;5018814;28;20205;-90
2023/11/15 11:30:25;;;;;;;2.17;1.10;;;10.60;93.40;;;;;;5024474;28;20655;-90
2023/11/15 11:33:15;;;;;;;2.20;1.13;;;10.60;93.20;;;;;;5027748;28;20234;-89
2023/11/15 11:35:42;;;;;;;1.38;1.13;;;10.80;93.20;;;;;;5022367;28;20281;-89
2023/11/15 11:38:20;;;;;;;1.52;1.20;;;10.80;93.10;;;;;;5030712;28;20285;-91
2023/11/15 11:40:47;;;;;;;3.00;1.30;;;10.90;93.90;;;;;;5030680;28;20206;-91
2023/11/15 11:43:16;;;;;;;1.73;1.02;;;10.90;94.20;;;;;;5033290;28;20194;-91
2023/11/15 11:45:44;;;;;;;2.72;1.25;;;10.90;94.20;;;;;;5015490;28;20252;-91
2023/11/15 11:48:31;;;;;;;1.95;1.10;;;10.90;94.60;;;;;;5024643;28;20217;-91
2023/11/15 11:51:03;;;;;;;2.28;0.90;;;10.90;94.90;;;;;;5030777;28;20702;-89
2023/11/15 11:53:30;;;;;;;2.20;1.10;;;10.80;95.30;;;;;;5007936;28;20245;-88
2023/11/15 11:55:58;;;;;;;2.55;1.20;;;10.60;95.90;;;;;;5013355;28;20293;-89
2023/11/15 11:58:32;;;;;;;2.75;1.63;;;10.50;96.50;;;;;;5028157;28;20678;-91
2023/11/15 12:01:19;;;;;;;3.78;1.40;;;10.30;97.40;;;;;;5023193;28;20218;-89
2023/11/15 12:03:47;;;;;;;4.43;1.55;;;10.10;98.40;;;;;;5025373;28;20299;-89
2023/11/15 12:06:14;;;;;;;3.80;1.50;;;10.00;99.30;;;;;;5027059;28;20202;-90
2023/11/15 12:08:47;;;;;;;3.53;1.17;;;10.00;99.90;;;;;;5030963;28;20293;-90
2023/11/15 12:11:21;;;;;;;4.88;1.42;;;9.80;99.90;;;;;;5014717;28;20705;-90
2023/11/15 12:16:31;;;;;;;3.53;1.30;;;9.90;99.90;;;;;;5020959;28;20316;-90
2023/11/15 12:21:47;;;;;;;2.28;1.27;;;10.20;99.90;;;;;;5010955;28;20581;-91
2023/11/15 12:24:19;;;;;;;4.22;1.50;;;10.40;99.70;;;;;;4994675;28;20296;-91
2023/11/15 12:26:47;;;;;;;7.20;1.73;;;10.40;99.30;;;;;;4990106;28;20207;-90
2023/11/15 12:32:03;;;;;;;5.30;1.48;;;10.50;99.10;;;;;;5029500;28;20297;-92
2023/11/15 12:34:31;;;;;;;3.88;1.10;;;10.60;99.00;;;;;;5008947;28;20206;-88
2023/11/15 12:36:58;;;;;;;4.25;1.20;;;10.60;99.20;;;;;;5030213;28;20203;-91
2023/11/15 12:39:36;;;;;;;3.20;1.27;;;10.40;98.10;;;;;;5016376;28;20194;-93
2023/11/15 12:42:04;;;;;;;3.33;1.40;;;10.40;98.60;;;;;;5006735;28;20198;-90
2023/11/15 12:47:25;;;;;;;1.70;1.00;;;10.30;98.40;;;;;;5019136;28;20202;-94
2023/11/15 12:49:52;;;;;;;3.38;1.25;;;10.10;98.40;;;;;;5007628;28;20671;-90
2023/11/15 12:52:33;;;;;;;2.85;1.30;;;10.20;99.00;;;;;;5025000;28;20231;-90
2023/11/15 12:55:03;;;;;;;2.33;1.15;;;10.40;99.00;;;;;;5028787;28;20209;-89
2023/11/15 12:57:30;;;;;;;3.80;1.10;;;10.50;97.00;;;;;;5011412;28;20198;-93
2023/11/15 12:59:59;;;;;;;4.07;1.50;;;10.70;98.00;;;;;;5030778;28;20213;-90
2023/11/15 13:02:27;;;;;;;3.55;1.30;;;10.90;97.60;;;;;;5030629;28;20243;-93
2023/11/15 13:04:54;;;;;;;3.40;1.20;;;11.10;96.50;;;;;;5044609;28;20275;-91
2023/11/15 13:10:03;;;;;;;1.88;1.02;;;11.60;96.10;;;;;;5011672;28;20229;-94
2023/11/15 13:12:30;;;;;;;4.63;1.25;;;11.60;95.40;;;;;;5037499;28;20227;-91
2023/11/15 13:17:41;;;;;;;10.68;7.38;;;11.60;93.90;;;;;;5011563;28;20664;-91
2023/11/15 13:22:49;;;;;;;16.70;13.13;;;11.70;93.90;;;;;;4993910;28;20261;-92
2023/11/15 13:25:16;;;;;;;4.25;1.90;;;11.60;95.30;;;;;;5033862;28;20221;-91
2023/11/15 13:27:46;;;;;;;7.55;5.57;;;11.70;93.40;;;;;;5030682;28;20203;-91
2023/11/15 13:32:57;;;;;;;4.10;2.70;;;11.60;94.40;;;;;;5022344;28;20226;-93
2023/11/15 13:35:26;;;;;;;3.78;1.75;;;11.40;94.80;;;;;;5037307;28;20209;-91
2023/11/15 13:37:55;;;;;;;4.75;1.52;;;11.40;93.80;;;;;;5011468;28;20290;-89
2023/11/15 13:40:22;;;;;;;21.23;17.00;;;11.20;94.40;;;;;;5006393;28;20202;-90
2023/11/15 13:42:50;;;;;;;2.80;1.42;;;11.30;94.90;;;;;;5009021;28;20209;-90
2023/11/15 13:45:19;;;;;;;2.90;1.13;;;11.40;94.10;;;;;;4978222;28;20249;-91
2023/11/15 13:47:46;;;;;;;2.90;1.38;;;11.30;93.40;;;;;;5011187;28;20195;-89
2023/11/15 13:50:14;;;;;;;1.75;1.20;;;11.10;93.60;;;;;;5025455;28;20194;-88
2023/11/15 13:52:41;;;;;;;1.83;1.35;;;11.00;93.60;;;;;;5026573;28;20254;-90
2023/11/15 13:55:09;;;;;;;2.85;1.40;;;10.90;94.20;;;;;;5006471;28;21497;-90
2023/11/15 13:57:38;;;;;;;2.53;1.20;;;10.80;94.10;;;;;;5005861;28;20206;-89
2023/11/15 14:00:07;;;;;;;3.63;1.15;;;10.70;94.30;;;;;;5029530;28;20330;-89
2023/11/15 14:02:36;;;;;;;2.22;1.20;;;10.50;94.80;;;;;;5022754;28;20210;-89
2023/11/15 14:05:09;;;;;;;2.92;1.25;;;10.50;94.50;;;;;;5027780;28;20286;-89
2023/11/15 14:07:36;;;;;;;2.28;1.10;;;10.40;95.80;;;;;;5010831;28;20252;-88
2023/11/15 14:10:04;;;;;;;2.72;1.10;;;10.20;96.20;;;;;;5024111;28;20241;-89